createdAt,value
2018-05-25T00:05:01.084Z,16.70
2018-05-25T00:10:03.115Z,16.70
2018-05-25T00:15:04.921Z,16.70
2018-05-25T00:20:10.187Z,16.60
2018-05-25T00:25:12.857Z,16.60
2018-05-25T00:30:15.501Z,16.50
2018-05-25T00:35:17.077Z,16.40
2018-05-25T00:40:18.751Z,16.60
2018-05-25T00:45:20.298Z,16.50
2018-05-25T00:50:22.699Z,16.50
2018-05-25T00:55:38.773Z,16.40
2018-05-25T01:00:40.287Z,16.30
2018-05-25T01:05:49.799Z,16.20
2018-05-25T01:10:51.575Z,16.10
2018-05-25T01:15:54.171Z,16.00
2018-05-25T01:20:56.055Z,15.90
2018-05-25T01:25:57.816Z,16.00
2018-05-25T01:30:59.387Z,15.90
2018-05-25T01:36:00.951Z,15.90
2018-05-25T01:41:03.547Z,15.90
2018-05-25T01:46:05.485Z,15.90
2018-05-25T01:51:07.028Z,15.80
2018-05-25T01:56:08.990Z,15.80
2018-05-25T02:01:11.104Z,15.80
2018-05-25T02:06:13.088Z,15.70
2018-05-25T02:11:14.682Z,15.70
2018-05-25T02:16:16.179Z,15.70
2018-05-25T02:21:17.827Z,15.60
2018-05-25T02:26:19.494Z,15.70
2018-05-25T02:31:21.899Z,15.70
2018-05-25T02:36:23.576Z,15.70
2018-05-25T02:41:25.469Z,15.70
2018-05-25T02:46:28.035Z,15.50
2018-05-25T02:51:29.857Z,15.50
2018-05-25T02:56:38.243Z,15.50
2018-05-25T03:01:40.193Z,15.40
2018-05-25T03:06:42.583Z,15.20
2018-05-25T03:11:45.083Z,15.10
2018-05-25T03:16:46.924Z,15.10
2018-05-25T03:21:49.252Z,15.20
2018-05-25T03:26:51.012Z,15.20
2018-05-25T03:31:52.809Z,15.20
2018-05-25T03:36:54.567Z,15.20
2018-05-25T03:41:56.087Z,15.20
2018-05-25T03:46:57.770Z,15.30
2018-05-25T03:51:59.291Z,15.30
2018-05-25T03:57:00.819Z,15.30
2018-05-25T04:02:03.331Z,15.50
2018-05-25T04:07:04.863Z,15.50
2018-05-25T04:12:06.411Z,15.60
2018-05-25T04:17:08.097Z,15.60
2018-05-25T04:22:09.631Z,15.70
2018-05-25T04:27:11.393Z,15.80
2018-05-25T04:32:13.140Z,16.10
2018-05-25T04:37:15.656Z,16.40
2018-05-25T04:42:17.235Z,16.40
2018-05-25T04:47:19.038Z,16.60
2018-05-25T04:52:20.643Z,16.70
2018-05-25T04:57:22.241Z,16.80
2018-05-25T05:02:24.011Z,16.90
2018-05-25T05:07:25.552Z,17.00
2018-05-25T05:12:27.864Z,17.10
2018-05-25T05:17:29.615Z,17.10
2018-05-25T05:22:32.008Z,17.20
2018-05-25T05:27:36.622Z,17.10
2018-05-25T05:32:38.519Z,17.30
2018-05-25T05:37:41.026Z,17.60
2018-05-25T05:42:42.802Z,17.60
2018-05-25T05:47:44.348Z,17.90
2018-05-25T05:52:46.646Z,18.30
2018-05-25T05:57:48.304Z,18.20
2018-05-25T06:02:50.798Z,18.50
2018-05-25T06:07:53.120Z,18.20
2018-05-25T06:12:54.816Z,18.10
2018-05-25T06:17:56.300Z,18.20
2018-05-25T06:22:57.788Z,18.40
2018-05-25T06:28:01.456Z,18.80
2018-05-25T06:33:03.084Z,18.80
2018-05-25T06:38:04.617Z,18.70
2018-05-25T06:43:06.272Z,18.50
2018-05-25T06:48:08.089Z,18.30
2018-05-25T06:53:17.235Z,18.50
2018-05-25T06:58:18.879Z,18.50
2018-05-25T07:03:20.703Z,18.60
2018-05-25T07:08:22.229Z,18.90
2018-05-25T07:13:30.723Z,19.10
2018-05-25T07:18:33.682Z,19.20
2018-05-25T07:23:36.424Z,19.40
2018-05-25T07:28:38.830Z,19.40
2018-05-25T07:33:42.578Z,19.50
2018-05-25T07:38:47.195Z,19.50
2018-05-25T07:43:50.593Z,19.30
2018-05-25T07:48:53.765Z,19.30
2018-05-25T07:53:58.199Z,20.20
2018-05-25T07:59:02.166Z,20.20
2018-05-25T08:04:06.305Z,20.80
2018-05-25T08:09:09.825Z,21.00
2018-05-25T08:14:13.388Z,21.70
2018-05-25T08:19:17.698Z,21.90
2018-05-25T08:24:22.639Z,22.10
2018-05-25T08:29:26.828Z,22.10
2018-05-25T08:34:45.047Z,22.60
2018-05-25T08:39:49.210Z,22.70
2018-05-25T08:44:53.332Z,23.00
2018-05-25T08:49:57.410Z,25.00
2018-05-25T08:55:01.150Z,25.20
2018-05-25T09:00:06.894Z,24.90
2018-05-25T09:05:12.345Z,24.90
2018-05-25T09:10:19.700Z,24.10
2018-05-25T09:15:24.602Z,24.60
2018-05-25T09:20:30.230Z,24.00
2018-05-25T09:25:38.415Z,23.60
2018-05-25T09:30:44.955Z,23.60
2018-05-25T09:35:49.935Z,23.90
2018-05-25T09:40:57.098Z,23.40
2018-05-25T09:46:03.316Z,23.40
2018-05-25T09:51:09.431Z,24.10
2018-05-25T09:56:14.989Z,24.10
2018-05-25T10:01:22.616Z,24.50
2018-05-25T10:06:32.475Z,24.10
2018-05-25T10:11:36.524Z,24.00
2018-05-25T10:16:41.975Z,24.40
2018-05-25T10:21:48.095Z,24.80
2018-05-25T10:26:54.093Z,24.60
2018-05-25T10:31:59.947Z,23.90
2018-05-25T10:37:09.008Z,23.40
2018-05-25T10:42:18.727Z,23.30
2018-05-25T10:47:27.511Z,23.20
2018-05-25T10:52:33.483Z,23.20
2018-05-25T10:57:41.801Z,25.00
2018-05-25T11:02:50.592Z,26.00
2018-05-25T11:07:56.625Z,25.90
2018-05-25T11:13:03.368Z,26.50
2018-05-25T11:18:09.174Z,26.40
2018-05-25T11:23:12.787Z,27.00
2018-05-25T11:28:15.515Z,26.30
2018-05-25T11:33:21.696Z,25.50
2018-05-25T11:38:27.345Z,24.80
2018-05-25T11:43:32.717Z,24.80
2018-05-25T11:48:43.356Z,24.80
2018-05-25T11:53:50.333Z,24.80
2018-05-25T11:58:55.636Z,24.70
2018-05-25T12:04:02.522Z,24.50
2018-05-25T12:09:07.321Z,24.50
2018-05-25T12:14:11.397Z,24.60
2018-05-25T12:19:19.707Z,24.50
2018-05-25T12:24:25.914Z,24.50
2018-05-25T12:29:34.082Z,24.50
2018-05-25T12:34:43.716Z,25.20
2018-05-25T12:39:50.247Z,25.20
2018-05-25T12:45:16.390Z,25.10
2018-05-25T12:50:21.369Z,25.20
2018-05-25T12:55:30.164Z,25.20
2018-05-25T13:00:35.952Z,25.40
2018-05-25T13:05:42.666Z,25.80
2018-05-25T13:15:58.895Z,25.90
2018-05-25T13:21:08.591Z,25.80
2018-05-25T13:26:14.275Z,25.80
2018-05-25T13:31:21.071Z,26.10
2018-05-25T13:36:29.091Z,26.50
2018-05-25T13:41:34.945Z,26.40
2018-05-25T13:46:42.234Z,26.70
2018-05-25T13:51:49.478Z,26.30
2018-05-25T13:56:56.965Z,26.30
2018-05-25T14:01:58.881Z,26.40
2018-05-25T14:07:00.636Z,26.80
2018-05-25T14:12:02.400Z,26.60
2018-05-25T14:17:04.113Z,26.50
2018-05-25T14:22:05.838Z,26.50
2018-05-25T14:27:08.204Z,26.70
2018-05-25T14:32:09.741Z,26.70
2018-05-25T14:37:11.472Z,26.60
2018-05-25T14:42:13.765Z,26.20
2018-05-25T14:47:15.334Z,26.20
2018-05-25T14:52:17.123Z,26.20
2018-05-25T14:57:18.711Z,26.50
2018-05-25T15:02:20.469Z,26.90
2018-05-25T15:07:22.049Z,27.30
2018-05-25T15:12:23.612Z,27.20
2018-05-25T15:17:25.383Z,27.00
2018-05-25T15:22:27.242Z,27.50
2018-05-25T15:27:28.847Z,26.70
2018-05-25T15:32:30.678Z,26.30
2018-05-25T15:37:32.280Z,26.00
2018-05-25T15:42:33.873Z,25.60
2018-05-25T15:47:35.566Z,25.60
2018-05-25T15:52:37.277Z,25.80
2018-05-25T15:57:39.018Z,26.10
2018-05-25T16:02:41.340Z,26.30
2018-05-25T16:07:42.992Z,26.20
2018-05-25T16:12:45.314Z,26.10
2018-05-25T16:17:46.951Z,25.80
2018-05-25T16:22:48.731Z,25.70
2018-05-25T16:27:50.265Z,25.70
2018-05-25T16:32:51.854Z,25.60
2018-05-25T16:37:54.268Z,25.50
2018-05-25T16:42:55.972Z,25.40
2018-05-25T16:47:57.618Z,25.40
2018-05-25T16:52:59.748Z,25.40
2018-05-25T16:58:03.622Z,25.10
2018-05-25T17:03:16.694Z,25.00
2018-05-25T17:08:18.452Z,24.80
2018-05-25T17:13:23.393Z,24.60
2018-05-25T17:18:27.690Z,24.40
2018-05-25T17:23:31.453Z,24.30
2018-05-25T17:28:33.283Z,24.30
2018-05-25T17:33:35.840Z,24.20
2018-05-25T17:38:38.396Z,23.90
2018-05-25T17:43:43.433Z,23.90
2018-05-25T17:48:48.424Z,23.80
2018-05-25T17:53:52.808Z,23.70
2018-05-25T17:58:56.277Z,23.40
2018-05-25T18:03:59.644Z,23.40
2018-05-25T18:09:01.788Z,23.20
2018-05-25T18:14:05.962Z,22.80
2018-05-25T18:19:10.515Z,22.80
2018-05-25T18:24:15.704Z,22.70
2018-05-25T18:29:17.777Z,22.60
2018-05-25T18:34:21.349Z,22.60
2018-05-25T18:39:23.383Z,22.40
2018-05-25T18:44:25.384Z,22.40
2018-05-25T18:49:28.354Z,22.30
2018-05-25T18:54:33.361Z,22.10
2018-05-25T18:59:35.356Z,22.00
2018-05-25T19:04:37.231Z,21.80
2018-05-25T19:09:39.338Z,21.80
2018-05-25T19:14:44.275Z,21.60
2018-05-25T19:19:46.531Z,21.40
2018-05-25T19:24:49.165Z,21.30
2018-05-25T19:29:55.332Z,21.10
2018-05-25T19:35:01.667Z,21.10
2018-05-25T19:40:07.285Z,21.00
2018-05-25T19:45:13.973Z,21.00
2018-05-25T19:50:20.135Z,20.90
2018-05-25T19:55:25.760Z,20.60
2018-05-25T20:00:30.530Z,20.50
2018-05-25T20:05:36.457Z,20.40
2018-05-25T20:10:38.446Z,20.40
2018-05-25T20:15:41.164Z,20.40
2018-05-25T20:20:42.744Z,20.30
2018-05-25T20:25:44.398Z,20.20
2018-05-25T20:30:46.028Z,20.10
2018-05-25T20:35:47.595Z,19.90
2018-05-25T20:40:49.923Z,19.80
2018-05-25T20:45:51.491Z,19.70
2018-05-25T20:50:53.082Z,19.70
2018-05-25T20:55:54.712Z,19.60
2018-05-25T21:00:56.260Z,19.40
2018-05-25T21:05:58.661Z,19.30
2018-05-25T21:11:00.775Z,19.20
2018-05-25T21:16:02.501Z,19.10
2018-05-25T21:21:04.418Z,19.10
2018-05-25T21:26:06.014Z,19.20
2018-05-25T21:31:08.145Z,19.20
2018-05-25T21:36:09.696Z,19.20
2018-05-25T21:41:12.331Z,19.20
2018-05-25T21:46:13.928Z,19.10
2018-05-25T21:51:16.146Z,19.20
2018-05-25T21:56:20.603Z,19.00
2018-05-25T22:01:22.368Z,18.90
2018-05-25T22:06:24.208Z,18.90
2018-05-25T22:11:25.763Z,18.80
2018-05-25T22:16:27.810Z,18.90
2018-05-25T22:21:29.571Z,18.80
2018-05-25T22:26:33.423Z,18.70
2018-05-25T22:31:35.039Z,18.60
2018-05-25T22:36:37.503Z,18.60
2018-05-25T22:41:39.091Z,18.50
2018-05-25T22:47:03.242Z,18.60
2018-05-25T22:52:21.751Z,18.50
2018-05-25T22:57:24.448Z,18.50
2018-05-25T23:02:27.605Z,18.40
2018-05-25T23:07:29.916Z,18.40
2018-05-25T23:12:31.755Z,18.40
2018-05-25T23:17:33.604Z,18.40
2018-05-25T23:22:35.887Z,18.10
2018-05-25T23:27:38.592Z,17.80
2018-05-25T23:32:41.661Z,17.70
2018-05-25T23:37:46.975Z,17.70
2018-05-25T23:42:52.319Z,17.70
2018-05-25T23:47:55.236Z,17.60
2018-05-25T23:52:57.049Z,17.50
2018-05-25T23:57:59.502Z,17.50
